KCPK

Chesapeake Regional Airport

Norfolk, Virginia, USA
METAR KCPK 141315Z AUTO 27005KT 10SM CLR 23/18 A3000 RMK AO2 T02300181
Observed Flight Rules
Aug-14 @ 13:15 UTC (27 minutes ago) Visual Flight Rules
Wind Visibility Clouds
270° at 5 knots 10 miles
  • Clear skies
Temperatures Readings
Current 23°C / 73°F
Dewpoint 18°C / 64°F
Humidity 74%
Altimeter 30" Hg
Pressure 1016 hPa
Elevation 6
METAR KCPK 141315Z AUTO 27005KT 10SM CLR 23/18 A3000 RMK AO2 T02300181
Observed Flight Rules
Aug-14 @ 13:15 UTC
(27 minutes ago)
VFR
Wind Visibility
270° at 5 knots 10 miles
Clouds
  • Clear skies
Temperature Dewpoint
23°C / 73°F 18°C / 64°F
Humidity Altimeter Pressure
74% 30" Hg 1016 hPa